Terminal Aerodrome Forecast
Issued by NWS

Home | Current Version | Previous Version | Text Only | Print | Product List | Glossary On
Versions: 1 2 3 4 5 6 7 8 9 10 11 12 13 14 15
834
FTUS46 KLOX 302340
TAFLGB
TAF
KLGB 302340Z 3100/3124 29014G20KT P6SM SKC
     FM310300 33017G25KT P6SM SKC
     FM310800 30009KT P6SM SKC
     FM312100 27011KT P6SM SKC=

USA.gov is the U.S. government's official web portal to all federal, state and local government web resources and services.